createdAt,value
2023-05-08T00:08:08.703Z,96.0
2023-05-08T00:21:08.705Z,97.0
2023-05-08T00:34:08.688Z,96.0
2023-05-08T00:47:08.701Z,95.0
2023-05-08T01:00:08.731Z,95.0
2023-05-08T01:13:08.862Z,96.0
2023-05-08T01:26:08.758Z,97.0
2023-05-08T01:39:08.791Z,98.0
2023-05-08T01:52:08.789Z,98.0
2023-05-08T02:05:08.842Z,98.0
2023-05-08T02:18:08.898Z,98.0
2023-05-08T02:31:08.873Z,98.0
2023-05-08T02:44:08.880Z,98.0
2023-05-08T02:57:08.902Z,98.0
2023-05-08T03:10:08.883Z,98.0
2023-05-08T03:23:08.930Z,98.0
2023-05-08T03:36:08.969Z,98.0
2023-05-08T03:49:08.957Z,97.0
2023-05-08T04:03:09.061Z,97.0
2023-05-08T04:21:09.105Z,98.0
2023-05-08T04:39:09.148Z,98.0
2023-05-08T04:53:09.199Z,98.0
2023-05-08T05:07:09.222Z,98.0
2023-05-08T05:21:09.227Z,98.0
2023-05-08T05:42:09.178Z,98.0
2023-05-08T05:56:09.182Z,98.0
2023-05-08T06:15:09.191Z,98.0
2023-05-08T06:29:09.186Z,98.0
2023-05-08T06:43:09.195Z,98.0
2023-05-08T06:57:09.217Z,98.0
2023-05-08T07:11:09.198Z,98.0
2023-05-08T07:25:09.236Z,97.0
2023-05-08T07:41:09.219Z,95.0
2023-05-08T07:55:09.235Z,90.0
2023-05-08T08:09:09.231Z,90.0
2023-05-08T08:23:09.258Z,84.0
2023-05-08T08:37:09.243Z,82.0
2023-05-08T08:56:09.275Z,79.0
2023-05-08T09:34:09.242Z,79.0
2023-05-08T09:54:09.238Z,83.0
2023-05-08T10:08:09.249Z,84.0
2023-05-08T10:22:09.246Z,83.0
2023-05-08T10:37:09.268Z,77.0
2023-05-08T11:25:09.293Z,72.0
2023-05-08T11:39:09.323Z,73.0
2023-05-08T12:21:09.319Z,74.0
2023-05-08T12:43:09.331Z,77.0
2023-05-08T13:04:09.400Z,78.0
2023-05-08T13:19:09.321Z,80.0
2023-05-08T14:14:09.332Z,71.0
2023-05-08T14:41:09.358Z,75.0
2023-05-08T14:55:09.557Z,75.0
2023-05-08T15:38:09.362Z,72.0
2023-05-08T15:52:09.374Z,72.0
2023-05-08T16:26:09.446Z,78.0
2023-05-08T16:40:09.435Z,81.0
2023-05-08T17:09:09.422Z,85.0
2023-05-08T17:24:09.400Z,86.0
2023-05-08T17:40:09.624Z,88.0
2023-05-08T17:54:09.428Z,88.0
2023-05-08T18:09:11.241Z,89.0
2023-05-08T18:23:09.451Z,86.0
2023-05-08T18:38:09.432Z,86.0
2023-05-08T18:52:09.473Z,87.0
2023-05-08T19:06:09.428Z,89.0
2023-05-08T19:19:09.465Z,90.0
2023-05-08T19:38:09.454Z,92.0
2023-05-08T19:51:09.474Z,92.0
2023-05-08T20:04:09.557Z,92.0
2023-05-08T20:43:09.487Z,93.0
2023-05-08T21:06:09.481Z,94.0
2023-05-08T21:19:09.524Z,94.0
2023-05-08T21:32:10.342Z,94.0
2023-05-08T21:45:09.524Z,94.0
2023-05-08T21:58:09.514Z,94.0
2023-05-08T22:11:09.517Z,94.0
2023-05-08T22:24:09.523Z,93.0
2023-05-08T22:39:09.532Z,93.0
2023-05-08T22:52:09.525Z,93.0
2023-05-08T23:05:09.535Z,93.0
2023-05-08T23:18:09.591Z,93.0
2023-05-08T23:31:09.542Z,92.0
2023-05-08T23:44:09.541Z,92.0
2023-05-08T23:57:09.560Z,91.0
